Tiempo atmosférico en la estación meteorológica de Pamplona Aeropuerto, Navarra (459 m.)



Fecha
DESCASC
Temp. máxima en grados centígrados (hora)
DESCASC
Temp. mínima en grados centígrados (hora)
DESCASC
Temp. media en grados centígrados
DESCASC
Racha de viento máxima en m/sg (hora)
DESCASC
Velocidad máxima media en intervalos de 10 minutos(hora)
DESCASC
Precipitaciones diarias en mm
DESCASC
Precipitaciones de 00:00 a 06:00 en mm
DESCASC
Precipitaciones de 06:00 a 12:00 en mm
DESCASC
Precipitaciones de 12:00 a 18:00 en mm
DESCASC
Precipitaciones de 18:00 a 24:00 en mm
DESCASC
13-10-2019 27.1 (15:50) 16.3 (05:50) 21.7 15.28 (11:40) 10.83 (14:40) 0 0 0 0 0
12-10-2019 -- (--) -- (--) -- -- (--) -- (--) -- 0 -- 0 2.6
10-10-2019 22.7 (17:10) 5.6 (00:00) 14.2 6.11 (13:00) 3.89 (18:40) 0 0 0 0 0
09-10-2019 20.1 (14:30) 11.1 (00:00) 15.6 12.5 (15:30) 8.61 (15:40) 0 0 0 0 0
08-10-2019 28.7 (16:20) 8 (00:00) 18.4 12.5 (18:20) 9.17 (18:20) 0 0 0 0 0
07-10-2019 21.6 (15:30) 9.4 (00:00) 15.5 11.67 (15:40) 7.78 (16:30) -- -- 0 0 0
06-10-2019 21.3 (14:50) 12.6 (00:00) 16.9 13.33 (16:00) 9.44 (15:50) 0 0 0 0 0
05-10-2019 21.5 (13:40) 11.8 (05:30) 16.7 11.39 (15:00) 7.78 (15:10) 0 0 0 0 0
04-10-2019 23.8 (14:30) 9.9 (00:00) 16.8 10.83 (18:20) 8.33 (18:20) 0 0 0 0 0
03-10-2019 23.4 (15:40) 10.1 (00:00) 16.8 14.44 (16:10) 10.83 (16:10) 0 0 0 0 0
02-10-2019 20 (13:20) 12.5 (00:00) 16.3 12.78 (13:00) 9.17 (17:00) 0 0 0 0 0
01-10-2019 25.3 (13:00) 11.7 (00:00) 18.5 -- (--) -- (--) -- 0 0 -- 0
30-09-2019 30 (17:30) 11.6 (00:00) 20.8 5.83 (17:10) 3.33 (18:40) -- 0 0 0 --
29-09-2019 30 (16:40) 10.2 (00:00) 20.1 12.5 (20:00) 8.61 (20:00) 0 0 0 0 0
28-09-2019 27.9 (17:30) 12.4 (00:00) 20.1 8.33 (15:20) 5.28 (15:30) 0 0 0 0 0
27-09-2019 26.9 (16:00) 11.5 (00:00) 19.2 8.33 (18:20) 6.39 (18:20) 0 0 0 0 0
26-09-2019 28.1 (17:20) 10.9 (00:00) 19.5 6.11 (14:40) 3.61 (19:50) 0 0 0 0 0
25-09-2019 22.8 (14:30) 14.5 (00:00) 18.6 8.33 (01:00) 5.83 (01:00) 0 0 0 0 0
24-09-2019 28.5 (16:00) 11.3 (00:00) 19.9 10.83 (16:20) 6.94 (16:20) 0 0 0 0 0
23-09-2019 23.8 (17:10) 9.9 (00:00) 16.8 7.78 (16:20) 4.44 (16:20) 0 0 0 0 0
22-09-2019 23.8 (14:40) 13.5 (00:00) 18.6 12.5 (01:30) 7.5 (01:30) 2.8 0.1 2.7 0 0
21-09-2019 27.8 (15:10) 16.5 (00:00) 22.1 15 (00:50) 10.56 (00:50) 1.6 1.6 0 0 0
20-09-2019 29 (16:00) 14.1 (00:00) 21.6 13.33 (21:30) 9.17 (21:30) 0 0 0 0 0
19-09-2019 28.7 (17:10) 13.1 (00:00) 20.9 8.33 (19:00) 5.83 (19:00) 0 0 0 0 0
18-09-2019 28.3 (17:20) 15.1 (00:00) 21.7 18.06 (18:20) 12.78 (18:20) 31.9 0 31.7 0 0.2
17-09-2019 31.5 (15:00) 14.2 (00:00) 22.8 8.89 (17:10) 6.39 (17:20) 0 0 0 0 0
16-09-2019 31.1 (16:10) 15.8 (00:00) 23.5 8.89 (19:20) 5.83 (19:20) 0.1 0 0.1 0 0

Gráficas

Temp. máximas Temp. mínimas Temp. medias Precipitaciones Rachas de viento máximas Velocidades máximas media en intervalos de 10 minutos

Datos horarios

Fecha y hora oficial Temperatura (ºC) Velocidad del viento (km/h) Dirección del viento Racha (km/h) Dirección de racha Precipitación (mm) Presión (hPa) Tendencia (hPa) Humedad (%)
2019-10-15 23:00:00 10.6 9 Sudeste 17 Sur 0 966.1 0.2 71
2019-10-15 22:00:00 11.7 12 Sur 15 Sur 0 966.1 0.7 70
2019-10-15 21:00:00 11.8 8 Sur 9 Sur 0 966 0.9 67
2019-10-15 20:00:00 12.1 7 Sur 9 Sudoeste 0 965.9 0.8 66
2019-10-15 19:00:00 15.5 4 Sudoeste 13 Oeste 0 965.4 0.5 52
2019-10-15 18:00:00 16.6 6 Noroeste 13 Oeste 0 965.1 -0.3 47
2019-10-15 17:00:00 17.5 8 Oeste 17 Oeste 0 965.1 -0.7 44
2019-10-15 16:00:00 17.7 6 Sudoeste -- -- -- 964.9 -1.1 42
2019-10-15 15:00:00 15.9 6 Sudeste 13 Sudeste 0 965.4 -0.9 49
2019-10-15 14:00:00 15.1 8 Sur 22 Sur 0 965.8 0 55
2019-10-15 13:00:00 14.6 3 Oeste 15 Sudeste 0 966 0.8 54
2019-10-15 12:00:00 12.7 6 Este 13 Este 0 966.3 1.9 63
2019-10-15 11:00:00 11.1 4 Nordeste 13 Nordeste 0 965.8 1.9 72
2019-10-15 10:00:00 8.9 3 Este 9 Sudeste 0 965.2 1.7 78
2019-10-15 09:00:00 7.2 3 Sudeste 9 Sur 0 964.4 1.3 90
2019-10-15 08:00:00 7.3 4 Sudeste 11 Oeste 0 963.9 1.3 85
2019-10-15 07:00:00 7.5 10 Oeste -- -- -- 963.5 1.3 86
2019-10-15 06:00:00 8.2 4 Oeste 15 Oeste 0 963.1 1.1 84
2019-10-15 05:00:00 9 5 Sudoeste -- -- -- 962.6 1 88
2019-10-15 04:00:00 9.3 6 Oeste 26 Oeste 1.2 962.2 1 90
2019-10-15 03:00:00 10.3 10 Sudoeste 21 Sudoeste 0 962 1.3 85
2019-10-15 02:00:00 10.3 6 Oeste 28 Noroeste 0 961.6 1.1 83
2019-10-15 01:00:00 10.8 9 Oeste 18 Sudoeste 0 961.2 1.1 83
2019-10-15 00:00:00 11.1 8 Sudoeste 18 Sur 0.4 960.7 1.6 87
2019-10-14 23:00:00 11.6 7 Sur 11 Sur 0.5 960.5 3.4 90
2019-10-14 22:00:00 12.3 5 Nordeste 21 Nordeste 0.4 960.1 4.7 87
2019-10-14 21:00:00 12.7 16 Oeste 45 Oeste 0.3 959.1 3.8 76
2019-10-14 20:00:00 13 35 Oeste 67 Oeste 0.9 957.1 1.2 82
2019-10-14 19:00:00 19.1 18 Sur 35 Sudoeste 0 955.4 -0.7 74
2019-10-14 18:00:00 19.2 16 Sur 32 Sur 0 955.3 0.5 73
2019-10-14 17:00:00 18.9 13 Sudoeste 48 Sur 2.1 955.9 -0.2 78
2019-10-14 16:00:00 15.8 29 Sudoeste 72 Sur 14.9 956.1 -0.7 87
2019-10-14 15:00:00 22.3 46 Sur 71 Sur 0 954.8 -2.1 51
2019-10-14 14:00:00 20.4 36 Sur 67 Sur 0 956.1 -0.7 63
2019-10-14 13:00:00 21.1 34 Sudeste 59 Sudeste 0 956.8 0.1 58
2019-10-14 12:00:00 21 32 Sur 54 Sur 0 956.9 1.1 57
2019-10-14 11:00:00 21.1 35 Sur 52 Sur 0 956.8 1 55
2019-10-14 10:00:00 21.1 32 Sur 52 Sudeste 0 956.7 0 54
2019-10-14 09:00:00 20.2 29 Sudeste 55 Sudeste 0 955.8 -1.2 58
2019-10-14 08:00:00 19.9 33 Sudeste 52 Sudeste 0 955.8 -1.6 60
2019-10-14 07:00:00 19.1 21 Sudeste 37 Sudeste 0 956.7 -1.4 64
2019-10-14 06:00:00 19.3 24 Sudeste 41 Este 0 957 -2.1 63
2019-10-14 05:00:00 19.4 17 Sur 42 Sudeste 0 957.4 -2.4 62
2019-10-14 04:00:00 19.5 13 Sudeste 35 Sudeste 0 958.1 -2.1 62
2019-10-14 03:00:00 19.3 18 Sudeste 37 Sudeste 0 959.1 -1.2 66
2019-10-14 02:00:00 19.6 24 Sudeste 37 Sudeste 0 959.8 -0.3 68
2019-10-14 01:00:00 20.2 23 Sudeste 46 Sudeste 0 960.2 0.4 66
2019-10-14 00:00:00 21 19 Sudeste 37 Sudeste 0 960.3 0.3 62
2019-10-13 23:00:00 21.5 22 Sudeste 33 Sudeste 0 960.1 0.2 60
2019-10-13 22:00:00 22.3 21 Sudeste 37 Sudeste 0 959.8 0.1 54
2019-10-13 21:00:00 23 21 Sudeste 41 Sudeste 0 960 0.2 52
2019-10-13 20:00:00 23.7 26 Sudeste 46 Sudeste 0 959.9 -0.1 49
2019-10-13 19:00:00 25 29 Sur 52 Sur 0 959.7 -0.6 44
2019-10-13 18:00:00 26.1 30 Sur 54 Sur 0 959.8 -0.6 39
2019-10-13 17:00:00 27 27 Sur 48 Sur 0 960 -1.4 40
2019-10-13 16:00:00 26.6 29 Sur 50 Sur 0 960.3 -2 41
2019-10-13 15:00:00 26.4 32 Sur 52 Sur 0 960.4 -2.2 44
2019-10-13 14:00:00 25.4 30 Sur 48 Sudeste 0 961.4 -0.9 48
2019-10-13 13:00:00 24.1 30 Sur 50 Sur 0 962.3 0.4 52
2019-10-13 12:00:00 23.6 32 Sur 55 Sur 0 962.6 1.1 55
2019-10-13 11:00:00 21.8 31 Sudeste 50 Sudeste 0 962.3 1.2 63
2019-10-13 10:00:00 20.8 24 Sudeste 41 Sur 0 961.9 1.1 65
2019-10-13 09:00:00 18.9 21 Sur 52 Sudeste 0 961.5 0.8 70
2019-10-13 08:00:00 18.6 28 Sur 45 Sur 0 961.1 0.7 71
2019-10-13 07:00:00 18.5 24 Sur 45 Sur 0 960.8 -0.1 69
2019-10-13 06:00:00 16.6 13 Noroeste 21 Noroeste 0 960.7 -1.1 78
2019-10-13 05:00:00 18.6 14 Sur 37 Sudeste 0 960.4 -1.8 68
2019-10-13 04:00:00 19 27 Sudeste 41 Sudeste 0 960.9 -1.3 68
2019-10-13 03:00:00 19.2 25 Sur 54 Sur 0 961.8 -0.5 68
2019-10-13 02:00:00 20.3 21 Sur 42 Sur 0 962.2 0.2 64
2019-10-13 01:00:00 20.4 21 Sur 33 Sur 0 962.2 0.7 64
2019-10-13 00:00:00 19.3 6 Sur 17 Oeste 0 962.3 0.5 70
2019-10-12 23:00:00 19.7 9 Noroeste 18 Noroeste 0 962 0.5 70
2019-10-12 22:00:00 20.6 3 Oeste 22 Sudeste 0 961.5 0.5 64
2019-10-12 21:00:00 20.9 9 Sudeste 30 Sur 0 961.8 0.6 65
2019-10-12 20:00:00 19.8 17 Sudeste 45 Sur 2.6 961.5 0 79
2019-10-12 19:00:00 24.7 19 Sur 39 Sur 0 961 -0.8 47
2019-10-12 18:00:00 27.1 26 Sur 41 Sur 0 961.2 -1.6 39
2019-10-12 17:00:00 27 23 Sudeste 39 Sudeste 0 961.5 -1.9 41
2019-10-12 16:00:00 26.3 31 Sur 42 Sur 0 961.8 -2.5 43
2019-10-12 15:00:00 26.4 26 Sur 41 Sur 0 962.8 -2 43
2019-10-12 14:00:00 27 24 Sur 45 Sur 0 963.4 -1.3 43
2019-10-12 13:00:00 24.2 6 Nordeste 24 Sur 0 964.3 0.1 55
2019-10-12 12:00:00 22.3 6 Norte 13 Noroeste 0 964.8 -- 61
2019-10-12 11:00:00 21.2 5 Oeste 21 Nordeste 0 964.7 -- 66
2019-10-12 10:00:00 19 11 Nordeste 15 Nordeste 0 964.2 -- 77
2019-10-12 09:00:00 -- -- -- -- -- -- -- -- --
2019-10-12 08:00:00 -- -- -- -- -- -- -- -- --
2019-10-12 07:00:00 -- -- -- -- -- -- -- -- --
2019-10-12 06:00:00 17.6 4 Oeste 26 Noroeste 0 963.5 -0.1 81
2019-10-12 05:00:00 17.7 9 Oeste 15 Oeste 0 963.2 -0.6 80
2019-10-12 04:00:00 18.4 8 Noroeste 22 Nordeste 0 963.3 -1 76
2019-10-12 03:00:00 18.4 5 Noroeste 17 Norte 0 963.6 -0.9 74
2019-10-12 02:00:00 19.4 4 Norte 11 Sur 0 963.8 -0.3 68
2019-10-12 01:00:00 19.8 5 Norte 21 Sur 0 964.3 0.5 65
2019-10-12 00:00:00 19.5 6 Sudeste 11 Norte 0 964.5 0.7 66
2019-10-11 23:00:00 19.6 2 Oeste 13 Oeste 0 964.1 0.4 65
2019-10-11 22:00:00 20.6 8 Norte 13 Norte 0 963.8 0.3 61
2019-10-11 21:00:00 22.3 0 Calma 15 Sudoeste 0 963.8 0.1 56
2019-10-11 20:00:00 23.7 13 Sudoeste 24 Sudoeste 0 963.7 -0.4 52
2019-10-11 19:00:00 25.4 12 Sudoeste 24 Sudoeste 0 963.5 -1.3 46
2019-10-11 18:00:00 27.3 14 Sudoeste 22 Sudoeste 0 963.7 -2.1 42
2019-10-11 17:00:00 27.7 14 Sudoeste 24 Sur 0 964.1 -3 40
2019-10-11 16:00:00 27.3 12 Sur 24 Sur 0 964.8 -3.3 40
2019-10-11 15:00:00 25 6 Norte 15 Nordeste 0 965.8 -2.8 45
2019-10-11 14:00:00 23.4 8 Noroeste 17 Noroeste 0 967.1 -1.7 47
2019-10-11 13:00:00 21.1 3 Este 13 Nordeste 0 968.1 -0.5 51
2019-10-11 12:00:00 18.8 6 Norte 11 Oeste 0 968.6 0.4 54
2019-10-11 11:00:00 15.6 3 Nordeste 8 Nordeste 0 968.8 1 57
2019-10-11 10:00:00 12.1 0 Calma 5 Oeste 0 968.6 0.8 69
2019-10-11 09:00:00 8.4 4 Sudeste 8 Sudeste 0 968.2 0.5 85
2019-10-11 08:00:00 7.3 3 Sudeste 8 Nordeste 0 967.8 -0.1 85
2019-10-11 07:00:00 7.5 3 Este 9 Sur 0 967.8 -0.4 87
2019-10-11 06:00:00 7.5 4 Sur 8 Sur 0 967.7 -0.7 86
2019-10-11 05:00:00 7.8 3 Sudoeste 13 Sur 0 967.9 -0.5 86
2019-10-11 04:00:00 8.1 2 Norte 8 Sudoeste 0 968.2 -0.5 84
2019-10-11 03:00:00 8.3 3 Oeste 9 Sudoeste 0 968.4 -0.4 82
2019-10-11 02:00:00 9.4 3 Este -- -- 0 968.4 -0.2 79
2019-10-11 01:00:00 10.4 3 Sur 5 Sudeste 0 968.7 0.3 77
2019-10-11 00:00:00 11.6 3 Sur 9 Sur 0 968.8 0.8 71
2019-10-10 23:00:00 12.9 5 Sudeste 8 Sur 0 968.6 0.9 72
2019-10-10 22:00:00 13.7 2 Noroeste 11 Oeste 0 968.4 0.8 71
2019-10-10 21:00:00 15.4 4 Oeste 13 Nordeste 0 968 0.5 66
2019-10-10 20:00:00 17 5 Norte 17 Noroeste 0 967.7 0 59
2019-10-10 19:00:00 19.9 13 Noroeste 21 Norte 0 967.6 -0.6 46
2019-10-10 18:00:00 21 11 Norte 22 Norte 0 967.5 -1.2 40
2019-10-10 17:00:00 21.8 6 Noroeste 21 Nordeste 0 967.7 -1.8 36
2019-10-10 16:00:00 22.4 6 Oeste 18 Noroeste 0 968.2 -2 36
2019-10-10 15:00:00 21.9 7 Oeste 21 Oeste 0 968.7 -2 38
2019-10-10 14:00:00 20.4 8 Noroeste 18 Noroeste 0 969.5 -1.4 44
2019-10-10 13:00:00 19.8 8 Noroeste 22 Norte 0 970.2 -0.7 47
2019-10-10 12:00:00 17.1 6 Oeste 13 Oeste 0 970.7 0.2 58
2019-10-10 11:00:00 14 4 Oeste 8 Noroeste 0 970.9 0.6 69
2019-10-10 10:00:00 11 3 Nordeste 9 Sudeste 0 970.9 0.6 81
2019-10-10 09:00:00 7.2 5 Sur 8 Sur 0 970.5 0.5 93
2019-10-10 08:00:00 6.3 0 Calma 5 Sur 0 970.3 0.5 95
2019-10-10 07:00:00 6.2 3 Oeste -- -- 0 970.3 0.1 91
2019-10-10 06:00:00 7 2 Sur 5 Sudeste 0 970 -0.2 91
2019-10-10 05:00:00 7.9 2 Este 5 Sudeste 0 969.8 -0.3 90
2019-10-10 04:00:00 7.9 0 Calma 9 Sudeste 0 970.2 -0.1 89
2019-10-10 03:00:00 8.5 6 Noroeste 8 Oeste 0 970.2 -0.1 88
2019-10-10 02:00:00 9.3 2 Nordeste 11 Sudoeste 0 970.1 -0.1 85
2019-10-10 01:00:00 10.1 4 Sudoeste 8 Oeste 0 970.3 0.2 84
2019-10-10 00:00:00 11.2 3 Noroeste 5 Noroeste 0 970.3 0.3 79
2019-10-09 23:00:00 11.5 6 Noroeste 15 Norte 0 970.2 0.7 77
2019-10-09 22:00:00 12.6 9 Norte 15 Norte 0 970.1 1.4 71
2019-10-09 21:00:00 13 11 Norte 33 Norte 0 970 1.6 67
2019-10-09 20:00:00 14.1 19 Norte 32 Norte 0 969.5 1.3 66
2019-10-09 19:00:00 15.5 19 Norte 37 Norte 0 968.7 0.5 61
2019-10-09 18:00:00 16.2 22 Norte 41 Norte 0 968.4 0.3 58
2019-10-09 17:00:00 17.5 25 Norte 45 Norte 0 968.2 -0.2 56
2019-10-09 16:00:00 18.4 26 Noroeste 45 Norte 0 968.2 -0.4 56
2019-10-09 15:00:00 18.1 24 Norte 39 Noroeste 0 968.1 -0.7 56
2019-10-09 14:00:00 19.4 23 Noroeste 42 Norte 0 968.4 -0.1 52
2019-10-09 13:00:00 17.9 26 Norte 39 Noroeste 0 968.6 0.5 57
2019-10-09 12:00:00 16.6 20 Norte 32 Norte 0 968.8 1.4 64
2019-10-09 11:00:00 16.1 18 Norte 26 Noroeste 0 968.5 1.5 71
2019-10-09 10:00:00 15 17 Norte 24 Noroeste 0 968.1 1.3 75
2019-10-09 09:00:00 14.6 15 Noroeste 22 Norte 0 967.4 1.1 80
2019-10-09 08:00:00 14.5 11 Norte 24 Noroeste 0 967 1.7 81
2019-10-09 07:00:00 14.6 12 Noroeste 18 Noroeste 0 966.8 1.5 81
2019-10-09 06:00:00 14.6 15 Noroeste 32 Noroeste 0 966.3 0.3 83
2019-10-09 05:00:00 14 10 Norte 18 Noroeste 0 965.3 -0.7 85
2019-10-09 04:00:00 14.3 9 Noroeste 18 Norte 0 965.3 -0.8 85
2019-10-09 03:00:00 14.6 11 Noroeste 21 Noroeste 0 966 -0.4 86
2019-10-09 02:00:00 15.2 13 Noroeste 28 Norte 0 966 -0.3 82
2019-10-09 01:00:00 16 17 Noroeste 28 Norte 0 966.1 -0.2 81
2019-10-09 00:00:00 17.8 18 Norte 28 Norte 0 966.4 0.4 79
2019-10-08 23:00:00 17.7 10 Noroeste 15 Noroeste 0 966.3 0.8 81
2019-10-08 22:00:00 18.1 7 Norte 18 Norte 0 966.3 1.6 76
2019-10-08 21:00:00 18.8 9 Norte 24 Norte 0 966 2.4 70
2019-10-08 20:00:00 20.2 18 Norte 39 Norte 0 965.5 2 58
2019-10-08 19:00:00 22.1 23 Norte 45 Norte 0 964.7 0.9 44
2019-10-08 18:00:00 26.1 29 Norte 37 Norte 0 963.6 -0.7 34
2019-10-08 17:00:00 28.1 9 Norte 15 Noroeste 0 963.5 -1.6 25
2019-10-08 16:00:00 28 6 Noroeste 17 Norte 0 963.8 -2 24
2019-10-08 15:00:00 26.5 8 Nordeste 17 Nordeste 0 964.3 -2.2 24
2019-10-08 14:00:00 25.6 6 Noroeste 15 Nordeste 0 965.1 -1.7 26
2019-10-08 13:00:00 22 5 Nordeste 9 Nordeste 0 965.8 -1.2 29
2019-10-08 12:00:00 19.4 4 Sudoeste 9 Sur 0 966.5 -0.4 36
2019-10-08 11:00:00 15.9 5 Oeste 8 Norte 0 966.8 0 43
2019-10-08 10:00:00 13.1 4 Noroeste 8 Noroeste 0 967 0.6 56
2019-10-08 09:00:00 9.6 3 Nordeste 5 Este 0 966.9 0.3 68
2019-10-08 08:00:00 8.1 0 Calma 5 Norte 0 966.8 0 74
2019-10-08 07:00:00 8.4 0 Calma 4 Sudoeste 0 966.4 -1.1 70
2019-10-08 06:00:00 8.9 0 Calma 5 Nordeste 0 966.6 -1.2 66
2019-10-08 05:00:00 9.7 5 Nordeste 9 Este 0 966.8 -1.1 64
2019-10-08 04:00:00 9.6 3 Este 5 Sudoeste 0 967.5 -0.5 69
2019-10-08 03:00:00 10.3 2 Oeste -- -- 0 967.8 -0.4 67
2019-10-08 02:00:00 10.8 5 Sudeste 13 Nordeste 0 967.9 -0.3 68
2019-10-08 01:00:00 12 6 Este 11 Sudeste 0 968 0.3 63
2019-10-08 00:00:00 12.9 8 Sudeste 9 Sudeste 0 968.2 0.5 62
2019-10-07 23:00:00 14 5 Este 11 Sudeste 0 968.2 0.7 57
2019-10-07 22:00:00 15.4 8 Norte 17 Nordeste 0 967.7 0.2 50
2019-10-07 21:00:00 16.4 8 Norte 21 Norte 0 967.7 0.6 49
2019-10-07 20:00:00 17.8 15 Norte 28 Norte 0 967.5 0.2 41
2019-10-07 19:00:00 19.4 20 Norte 32 Norte 0 967.5 0.4 36
2019-10-07 18:00:00 20.1 21 Norte 37 Norte 0 967.1 -0.2 39
2019-10-07 17:00:00 20.8 24 Norte 41 Norte 0 967.3 -0.7 38
2019-10-07 16:00:00 21.3 26 Norte 42 Norte 0 967.1 -1.5 37
2019-10-07 15:00:00 21 24 Norte 35 Norte 0 967.3 -1.3 43
2019-10-07 14:00:00 20.2 18 Norte 32 Norte 0 968 -0.6 47
2019-10-07 13:00:00 19.7 20 Noroeste 33 Noroeste 0 968.6 0.6 49
2019-10-07 12:00:00 17.5 17 Norte 32 Norte 0 968.6 0.4 56
2019-10-07 11:00:00 15.1 18 Norte 28 Norte 0 968.6 0.8 69
2019-10-07 10:00:00 14.3 15 Noroeste 24 Norte 0 968 0.4 75
2019-10-07 09:00:00 12 15 Noroeste 26 Noroeste 0 968.2 0.5 84
2019-10-07 08:00:00 10.9 18 Noroeste 24 Noroeste 0 967.8 -0.1 86
2019-10-07 07:00:00 10 13 Noroeste 17 Norte 0 967.6 -1.1 91
2019-10-07 06:00:00 9.7 7 Norte -- -- -- 967.7 -1.3 89
2019-10-07 05:00:00 10.3 12 Noroeste 13 Noroeste 0 967.9 -1.2 88
2019-10-07 04:00:00 10.5 13 Noroeste 15 Noroeste 0 968.7 -1 86
2019-10-07 03:00:00 11.2 9 Noroeste 18 Noroeste 0 969 -0.8 82
2019-10-07 02:00:00 11.4 12 Noroeste 18 Norte 0 969.1 -0.6 82
2019-10-07 01:00:00 12.6 12 Norte 24 Norte 0 969.7 0.3 76
2019-10-07 00:00:00 13 12 Norte 26 Noroeste 0 969.8 0.7 83
2019-10-06 23:00:00 14.2 17 Noroeste 26 Noroeste 0 969.7 0.8 82
2019-10-06 22:00:00 14.5 24 Noroeste -- -- -- 969.4 0.5 79
2019-10-06 21:00:00 14.6 18 Norte 28 Norte 0 969.1 0.7 76
2019-10-06 20:00:00 15.5 19 Norte 28 Norte 0 968.9 1 74
2019-10-06 19:00:00 16.2 19 Noroeste 41 Norte 0 968.9 1 72
2019-10-06 18:00:00 16.7 28 Norte 42 Norte 0 968.4 0.7 72
2019-10-06 17:00:00 18.6 34 Norte 46 Norte 0 967.9 -0.9 64
2019-10-06 16:00:00 19.2 33 Norte 48 Norte 0 967.9 -0.8 63
2019-10-06 15:00:00 20.9 22 Norte 46 Noroeste 0 967.7 -0.9 58
2019-10-06 14:00:00 17.8 20 Norte 35 Norte 0 968.8 0.1 72
2019-10-06 13:00:00 17.5 14 Norte 21 Norte 0 968.7 0.6 68
2019-10-06 12:00:00 18.1 9 Oeste 18 Noroeste 0 968.6 0.6 62
2019-10-06 11:00:00 16.3 3 Oeste 5 Oeste 0 968.7 1.2 66
2019-10-06 10:00:00 15.5 3 Sudeste 9 Sudeste 0 968.1 0.7 68
2019-10-06 09:00:00 13.6 3 Sur 11 Sur 0 968 1 75
2019-10-06 08:00:00 13.2 5 Norte 15 Noroeste 0 967.5 0.7 76
2019-10-06 07:00:00 13.3 6 Noroeste 9 Noroeste 0 967.4 0.3 77
2019-10-06 06:00:00 13 5 Oeste 15 Norte 0 967 0.1 79
2019-10-06 05:00:00 13.1 11 Noroeste 21 Norte 0 966.8 -0.4 78
2019-10-06 04:00:00 14.5 14 Norte 30 Norte 0 967.1 0.5 74
2019-10-06 03:00:00 13.3 14 Noroeste 21 Noroeste 0 966.9 0.2 80
2019-10-06 02:00:00 13.8 19 Norte 32 Norte 0 967.2 0.4 77
2019-10-06 01:00:00 13.7 12 Noroeste 18 Noroeste 0 966.6 0.3 80
2019-10-06 00:00:00 14.3 13 Norte 30 Norte 0 966.7 0.8 79
2019-10-05 23:00:00 14.6 22 Norte 30 Norte 0 966.8 1.7 78
2019-10-05 22:00:00 15 21 Norte 30 Norte 0 966.3 1.9 78
2019-10-05 21:00:00 15.2 21 Norte 33 Noroeste 0 965.9 1.6 77
2019-10-05 20:00:00 16 22 Norte 33 Norte 0 965.1 1.1 74
2019-10-05 19:00:00 17.9 21 Noroeste 33 Noroeste 0 964.4 0.3 66
2019-10-05 18:00:00 19 23 Norte 35 Noroeste 0 964.3 -0.1 60
2019-10-05 17:00:00 20.1 24 Norte 37 Norte 0 964 -0.8 57
2019-10-05 16:00:00 20.8 26 Norte 37 Noroeste 0 964.1 -0.8 54
2019-10-05 15:00:00 21 27 Norte 41 Norte 0 964.4 -1 54
2019-10-05 14:00:00 21.3 24 Noroeste 32 Noroeste 0 964.8 -0.9 54
2019-10-05 13:00:00 20.7 17 Noroeste 30 Noroeste 0 964.9 -0.4 56
2019-10-05 12:00:00 19.3 18 Noroeste 30 Noroeste 0 965.4 0.4 60
2019-10-05 11:00:00 18 18 Norte 30 Noroeste 0 965.7 0.7 63
2019-10-05 10:00:00 16.5 15 Norte 22 Norte 0 965.3 0.4 69
2019-10-05 09:00:00 13.9 0 Calma 21 Norte 0 965 0 80
2019-10-05 08:00:00 13.3 14 Noroeste 18 Noroeste 0 965 -0.2 84
2019-10-05 07:00:00 12.8 3 Oeste 15 Nordeste 0 964.9 -0.4 86
2019-10-05 06:00:00 12.3 11 Nordeste 15 Nordeste 0 965 -0.7 88
2019-10-05 05:00:00 12.4 3 Este 13 Norte 0 965.2 -0.6 88
2019-10-05 04:00:00 13.4 0 Calma 9 Sur 0 965.3 -1 89
2019-10-05 03:00:00 13.2 4 Norte 13 Noroeste 0 965.7 -0.7 88
2019-10-05 02:00:00 13.8 10 Noroeste 17 Noroeste 0 965.8 -0.6 86
2019-10-05 01:00:00 14.8 11 Noroeste 17 Noroeste 0 966.3 0.2 82
2019-10-05 00:00:00 14.5 11 Noroeste 18 Noroeste 0 966.4 0.6 85
2019-10-04 23:00:00 14.8 9 Noroeste 21 Norte 0 966.4 1.1 82
2019-10-04 22:00:00 14.5 15 Norte 22 Norte 0 966.1 1.7 81
2019-10-04 21:00:00 14.7 15 Norte 24 Norte 0 965.8 1.7 83
2019-10-04 20:00:00 15.8 11 Norte 30 Norte 0 965.3 1.7 77
2019-10-04 19:00:00 17.6 18 Norte 39 Noroeste 0 964.4 0 71
2019-10-04 18:00:00 19.6 28 Norte 37 Norte 0 964.1 -0.8 66
2019-10-04 17:00:00 21.1 22 Norte 32 Norte 0 963.6 -1.7 60
2019-10-04 16:00:00 21.1 17 Norte 32 Norte 0 964.4 -1.6 62
2019-10-04 15:00:00 22.4 18 Norte 32 Noroeste 0 964.9 -1.3 60
2019-10-04 14:00:00 23 13 Norte 30 Norte 0 965.3 -1 58
2019-10-04 13:00:00 21.9 21 Noroeste 30 Noroeste 0 966 0 62
2019-10-04 12:00:00 21.3 16 Noroeste 26 Norte 0 966.2 0.4 64
2019-10-04 11:00:00 16.9 3 Oeste 11 Norte 0 966.3 0.7 62
2019-10-04 10:00:00 14.5 3 Norte 5 Norte 0 966 0.5 68
2019-10-04 09:00:00 11.9 3 Noroeste 9 Oeste 0 965.8 0.1 78
2019-10-04 08:00:00 11.4 5 Oeste 8 Oeste 0 965.6 -0.2 78
2019-10-04 07:00:00 11.3 3 Nordeste 9 Sudeste 0 965.5 -0.4 77
2019-10-04 06:00:00 10.3 3 Nordeste 8 Norte 0 965.7 -0.5 79
2019-10-04 05:00:00 10.7 3 Nordeste 8 Este 0 965.8 -0.7 78
2019-10-04 04:00:00 10.6 8 Este 11 Este 0 965.9 -0.9 78
2019-10-04 03:00:00 11.2 4 Norte 9 Nordeste 0 966.2 -0.9 77
2019-10-04 02:00:00 11.9 5 Este 9 Sudoeste 0 966.5 -0.5 72
2019-10-04 01:00:00 12.4 6 Sur 11 Sur 0 966.8 0.3 72
2019-10-04 00:00:00 13.3 7 Este 15 Norte 0 967.1 0.9 69
2019-10-03 23:00:00 14.5 12 Norte -- -- -- 967 1.2 63
2019-10-03 22:00:00 14.9 12 Norte 22 Norte 0 966.5 1.1 59
2019-10-03 21:00:00 16.3 15 Norte 26 Norte 0 966.2 0.8 54
2019-10-03 20:00:00 17.7 15 Norte 41 Norte 0 965.8 0.4 50
2019-10-03 19:00:00 19.4 23 Norte 37 Norte 0 965.4 0 45
2019-10-03 18:00:00 20.5 25 Norte 37 Norte 0 965.4 0.2 42
2019-10-03 17:00:00 22.4 20 Noroeste 52 Norte 0 965.4 0 42
2019-10-03 16:00:00 22.6 30 Noroeste 46 Noroeste 0 965.4 -0.5 38
2019-10-03 15:00:00 22.3 23 Noroeste 37 Noroeste 0 965.2 -1.4 39
2019-10-03 14:00:00 21 14 Norte 22 Norte 0 965.4 -1.5 45
2019-10-03 13:00:00 19.3 12 Norte 32 Noroeste 0 965.9 -0.8 52
2019-10-03 12:00:00 18 15 Noroeste 24 Norte 0 966.6 -0.1 55
2019-10-03 11:00:00 15.8 13 Norte 24 Norte 0 966.9 0.5 62
2019-10-03 10:00:00 14 2 Sur 11 Sudeste 0 966.7 0.4 74
2019-10-03 09:00:00 10.6 3 Este 8 Noroeste 0 966.7 0.5 90
2019-10-03 08:00:00 10.7 6 Nordeste 13 Noroeste 0 966.4 0 86
2019-10-03 07:00:00 11.8 9 Noroeste 13 Noroeste 0 966.3 -0.6 88
2019-10-03 06:00:00 12.5 9 Noroeste 15 Noroeste 0 966.2 -1.4 87
2019-10-03 05:00:00 12.9 9 Noroeste 13 Noroeste 0 966.4 -1.2 85
2019-10-03 04:00:00 13.2 9 Noroeste 18 Noroeste 0 966.9 -1.5 84
2019-10-03 03:00:00 13 10 Norte 15 Norte 0 967.6 -1.3 86
2019-10-03 02:00:00 12.6 12 Noroeste 24 Norte 0 967.6 -1.4 88
2019-10-03 01:00:00 12.5 13 Noroeste 22 Noroeste 0 968.4 -0.2 88
2019-10-03 00:00:00 13.9 10 Noroeste 24 Noroeste 0 968.9 0.6 78
2019-10-02 23:00:00 14 15 Noroeste 32 Norte 0 969 1.1 75
2019-10-02 22:00:00 14.1 19 Norte 26 Norte 0 968.6 1 76
2019-10-02 21:00:00 14.2 15 Noroeste 22 Noroeste 0 968.3 1.3 82
2019-10-02 20:00:00 14.1 15 Norte 28 Norte 0 967.9 1.2 85
2019-10-02 19:00:00 14.6 17 Noroeste 37 Norte 0 967.6 0.9 89
2019-10-02 18:00:00 15.7 17 Norte 41 Norte 0 967 0.6 80
2019-10-02 17:00:00 16.8 33 Norte 45 Norte 0 966.7 0.1 67
2019-10-02 16:00:00 18.1 32 Noroeste 45 Noroeste 0 966.7 0.4 65
2019-10-02 15:00:00 18.9 28 Noroeste 42 Norte 0 966.4 0.3 60
2019-10-02 14:00:00 18.9 26 Noroeste 45 Norte 0 966.6 0.9 64
2019-10-02 13:00:00 19.1 27 Noroeste 46 Noroeste 0 966.3 1.2 60
2019-10-02 12:00:00 15.9 31 Noroeste 42 Noroeste 0 966.1 1.9 74
2019-10-02 11:00:00 15.4 25 Noroeste 35 Noroeste 0 965.7 1.9 76
2019-10-02 10:00:00 13.9 14 Noroeste 22 Noroeste 0 965.1 1.5 85
2019-10-02 09:00:00 13.2 12 Norte 22 Noroeste 0 964.2 0.7 87
2019-10-02 08:00:00 12.7 9 Oeste 21 Noroeste 0 963.8 0.5 91
2019-10-02 07:00:00 12.9 15 Noroeste 22 Noroeste 0 963.6 0.3 89
2019-10-02 06:00:00 13.3 11 Norte 33 Noroeste 0 963.5 0.1 83
2019-10-02 05:00:00 13.9 9 Noroeste 39 Noroeste 0 963.3 -0.2 71
2019-10-02 04:00:00 14.7 25 Noroeste 37 Noroeste 0 963.3 -0.4 72
2019-10-02 03:00:00 14.7 18 Norte 32 Noroeste 0 963.4 0.1 73
2019-10-02 02:00:00 15.3 17 Norte 33 Noroeste 0 963.5 0.3 77
2019-10-02 01:00:00 15.8 15 Norte 24 Norte 0 963.7 1 81
2019-10-02 00:00:00 16.2 8 Noroeste 28 Norte 0 963.3 0.9 76
2019-10-01 23:00:00 16.3 18 Nordeste 26 Nordeste 0 963.2 1.2 77
2019-10-01 22:00:00 16.8 13 Norte 26 Norte 0 962.7 1.4 73
2019-10-01 21:00:00 17.1 13 Norte 37 Norte 0 962.4 1.6 72
2019-10-01 20:00:00 17.5 18 Norte 37 Norte 0 962 1.5 73
2019-10-01 19:00:00 19.3 19 Norte 39 Norte 0 961.3 0.9 65
2019-10-01 18:00:00 21 20 Norte 39 Norte 0 960.8 -- 60
2019-10-01 17:00:00 22.5 30 Norte 39 Norte 0 960.5 -0.5 55
2019-10-01 16:00:00 24.4 20 Norte 35 Norte 0 960.4 -0.7 49
2019-10-01 15:00:00 19.8 22 Norte 35 Norte 0 -- -- 58
2019-10-01 14:00:00 24.8 24 Norte 37 Norte 0 961 -0.5 49
2019-10-01 13:00:00 24.8 23 Noroeste 33 Noroeste 0 961.1 0.1 52
2019-10-01 12:00:00 22.5 0 Calma 11 Noroeste 0 961.5 1.1 57
2019-10-01 11:00:00 20.5 5 Noroeste 11 Noroeste 0 961.5 1.3 60
2019-10-01 10:00:00 17.4 0 Calma 8 Este 0 961 1 72
2019-10-01 09:00:00 13.7 4 Sudeste 8 Sudeste 0 960.4 0.4 86
2019-10-01 08:00:00 12.4 3 Este 5 Sudeste 0 960.2 0.1 89
2019-10-01 07:00:00 12.5 5 Sudeste 8 Sudeste 0 960 -0.8 87
2019-10-01 06:00:00 12.7 0 Calma 4 Oeste 0 960 -1.7 88
2019-10-01 05:00:00 13.1 0 Calma 5 Sudeste 0 960.1 -1.6 86
2019-10-01 04:00:00 13.9 0 Calma 5 Sudeste 0 960.8 -1.2 83
2019-10-01 03:00:00 15.3 0 Calma 5 Nordeste 0 961.7 -0.6 77
2019-10-01 02:00:00 16.5 0 Calma 8 Sudeste 0 961.7 -- 76
2019-10-01 01:00:00 17.5 5 Este 9 Este 0 962 -0.1 76
2019-10-01 00:00:00 18.7 5 Nordeste 8 Nordeste -- 962.3 0.5 73
2019-09-30 23:00:00 -- -- -- -- -- -- -- -- --
2019-09-30 22:00:00 20.9 3 Sur 5 Sudoeste 0 962.1 0.6 66
2019-09-30 21:00:00 22.7 4 Nordeste -- -- -- 961.8 0.1 61
2019-09-30 20:00:00 24.8 6 Sudoeste 13 Oeste 0 961.5 -0.7 42
2019-09-30 19:00:00 28.7 9 Oeste 17 Sudoeste 0 961.5 -1.4 34
2019-09-30 18:00:00 29.8 9 Sudoeste 21 Noroeste 0 961.7 -1.9 31
2019-09-30 17:00:00 29.1 8 Oeste 13 Noroeste 0 962.2 -2.5 34
2019-09-30 16:00:00 28.8 6 Sudoeste 18 Noroeste 0 962.9 -2.6 37
2019-09-30 15:00:00 27.6 5 Sudoeste 17 Este 0 963.6 -2.6 40
2019-09-30 14:00:00 25.9 5 Nordeste 13 Nordeste 0 964.7 -1.7 45
2019-09-30 13:00:00 23.8 4 Este 11 Nordeste 0 965.5 -0.9 52
2019-09-30 12:00:00 22.2 4 Noroeste 13 Noroeste 0 966.2 0.2 60
2019-09-30 11:00:00 19.1 4 Este 9 Nordeste 0 966.4 0.8 70
2019-09-30 10:00:00 16.5 4 Este 8 Nordeste 0 966.4 1 77
2019-09-30 09:00:00 13.4 0 Calma 5 Sur 0 966 0.5 88
2019-09-30 08:00:00 11.7 3 Sur 8 Sur 0 965.6 0 92
2019-09-30 07:00:00 11.8 5 Sudeste 8 Sudeste 0 965.4 -0.7 91
2019-09-30 06:00:00 12.6 5 Sudeste 8 Sudeste 0 965.5 -1 89
2019-09-30 05:00:00 13.2 4 Sudeste 8 Sudeste 0 965.6 -1 86
2019-09-30 04:00:00 13.4 0 Calma 5 Sudeste 0 966.1 -0.5 82
2019-09-30 03:00:00 14.3 0 Calma 8 Sudeste 0 966.5 -0.2 80
2019-09-30 02:00:00 14.7 3 Sudeste 8 Sudeste 0 966.6 0.2 74
2019-09-30 01:00:00 15.8 0 Calma 11 Norte 0 966.6 0.4 68
2019-09-30 00:00:00 16.6 7 Norte 11 Norte 0 966.7 1.5 67
2019-09-29 23:00:00 17.5 8 Noroeste 15 Noroeste 0 966.4 2.5 60
2019-09-29 22:00:00 18.3 10 Noroeste 18 Norte 0 966.2 3.4 52
2019-09-29 21:00:00 19.5 17 Noroeste 37 Norte 0 965.2 2.2 47
2019-09-29 20:00:00 22.1 31 Norte 45 Noroeste 0 963.9 0.7 44
2019-09-29 19:00:00 28.9 6 Sur 18 Oeste 0 962.8 -0.9 29
2019-09-29 18:00:00 29.7 8 Oeste 21 Oeste 0 963 -1.4 29
2019-09-29 17:00:00 29.6 14 Sudoeste 26 Oeste 0 963.2 -2.1 30
2019-09-29 16:00:00 29.4 17 Oeste 30 Sudoeste 0 963.7 -1.7 30
2019-09-29 15:00:00 28.8 18 Sudoeste 32 Sudoeste 0 964.4 -1.4 31
2019-09-29 14:00:00 27.6 8 Sur 18 Sudoeste 0 965.3 -0.6 37
2019-09-29 13:00:00 25.6 6 Sur 13 Sur 0 965.4 -0.1 50
2019-09-29 12:00:00 22.6 4 Norte 9 Noroeste 0 965.8 0.5 58
2019-09-29 11:00:00 19.8 3 Este 8 Este 0 965.9 0.6 59
2019-09-29 10:00:00 16.9 3 Este 8 Este 0 965.5 0.6 67
2019-09-29 09:00:00 12.9 2 Sudeste 8 Sudeste 0 965.3 0.4 80
2019-09-29 08:00:00 10.7 4 Nordeste -- -- 0 965.3 0.3 86
2019-09-29 07:00:00 11.7 5 Este 11 Nordeste 0 964.9 -0.5 81
2019-09-29 06:00:00 11.8 2 Sudoeste 11 Nordeste 0 964.9 -0.6 83
2019-09-29 05:00:00 12.5 3 Este 13 Sur 0 965 -0.3 80
2019-09-29 04:00:00 12.9 2 Oeste 11 Sudoeste 0 965.4 -0.2 78
2019-09-29 03:00:00 13.4 4 Norte 9 Noroeste 0 965.5 -0.5 75
2019-09-29 02:00:00 14.1 4 Noroeste 9 Nordeste 0 965.3 -0.6 74
2019-09-29 01:00:00 15.4 2 Sur 13 Nordeste 0 965.6 0 68
2019-09-29 00:00:00 17.2 3 Nordeste 13 Nordeste 0 966 0.5 61
2019-09-28 23:00:00 19.6 4 Este 8 Nordeste 0 965.9 0.9 53
2019-09-28 22:00:00 20.4 4 Sudeste 13 Sudeste 0 965.6 0.3 51
2019-09-28 21:00:00 20.9 7 Sur -- -- -- 965.5 0.1 50
2019-09-28 20:00:00 23.6 9 Sudoeste 18 Sudoeste 0 965 -0.8 43
2019-09-28 19:00:00 26.6 13 Sudoeste 21 Sudoeste 0 965.3 -1.2 37
2019-09-28 18:00:00 27.6 13 Sudoeste 22 Sudoeste 0 965.4 -1.7 35
2019-09-28 17:00:00 27.6 14 Sudoeste 28 Sudoeste 0 965.8 -2.3 35
2019-09-28 16:00:00 27.1 15 Sudoeste 30 Sudoeste 0 966.5 -2.3 34
2019-09-28 15:00:00 26.2 13 Sur 24 Sudeste 0 967.1 -2.2 40
2019-09-28 14:00:00 24.1 6 Sur 17 Este 0 968.1 -1.5 48
2019-09-28 13:00:00 22.1 3 Noroeste 17 Norte 0 968.8 -0.7 53
2019-09-28 12:00:00 20 4 Nordeste 11 Nordeste 0 969.3 0.1 61
2019-09-28 11:00:00 18.3 0 Calma 9 Sudeste 0 969.6 0.8 68
2019-09-28 10:00:00 16.8 5 Este 9 Este 0 969.5 0.7 74
2019-09-28 09:00:00 14.4 5 Sudeste 8 Sudeste 0 969.2 0.3 84
2019-09-28 08:00:00 12.5 3 Noroeste -- -- 0 968.8 -0.3 90
2019-09-28 07:00:00 13.3 5 Norte 11 Norte 0 968.8 -0.2 88
2019-09-28 06:00:00 14.1 9 Norte 18 Noroeste 0 968.9 -0.1 86
2019-09-28 05:00:00 14.3 13 Norte 22 Norte 0 969.1 0.2 86
2019-09-28 04:00:00 15.2 17 Norte 22 Norte 0 969 0 84
2019-09-28 03:00:00 14.9 9 Norte 17 Norte 0 969 0.1 86
2019-09-28 02:00:00 15.2 7 Norte 17 Noroeste 0 968.9 0.3 86
2019-09-28 01:00:00 15 9 Noroeste 13 Norte 0 969 1 85
2019-09-28 00:00:00 15.6 11 Norte 22 Norte 0 968.9 1.9 81
2019-09-27 23:00:00 16.6 12 Norte 24 Norte 0 968.6 2.5 78
2019-09-27 22:00:00 17.2 10 Norte 30 Norte 0 968 2.4 78
2019-09-27 21:00:00 18.2 19 Norte 28 Norte 0 967 2 77
2019-09-27 20:00:00 20.5 14 Norte 26 Nordeste 0 966.1 1.2 61
2019-09-27 19:00:00 22.2 17 Norte 30 Norte 0 965.6 0.3 58
2019-09-27 18:00:00 25.1 19 Noroeste 26 Norte 0 965 -0.7 45
2019-09-27 17:00:00 25.8 16 Norte 26 Norte 0 964.9 -1.6 41
2019-09-27 16:00:00 26.7 13 Noroeste 22 Noroeste 0 965.3 -1.6 33
2019-09-27 15:00:00 25.5 5 Nordeste 17 Noroeste 0 965.7 -1.8 39
2019-09-27 14:00:00 25.1 8 Oeste 18 Noroeste 0 966.5 -1.2 41
2019-09-27 13:00:00 23.5 6 Noroeste 15 Norte 0 966.9 -0.4 48
2019-09-27 12:00:00 20.8 4 Norte 11 Sur 0 967.5 0.5 54
2019-09-27 11:00:00 18 2 Nordeste 9 Sudeste 0 967.7 1.1 67
2019-09-27 10:00:00 14.8 4 Nordeste 9 Nordeste 0 967.3 0.7 80
2019-09-27 09:00:00 12.2 0 Calma 8 Este 0 967 0.3 98
2019-09-27 08:00:00 11.7 5 Este 8 Nordeste 0 966.6 0.3 97
2019-09-27 07:00:00 12.8 6 Sudeste 8 Este 0 966.6 0.3 92
2019-09-27 06:00:00 13.9 0 Calma 8 Sudeste 0 966.7 0.3 95
2019-09-27 05:00:00 13.8 8 Sudeste 9 Sur 0 966.3 -0.2 95
2019-09-27 04:00:00 12.5 6 Sudeste 9 Noroeste 0 966.3 -0.2 93
2019-09-27 03:00:00 14 3 Nordeste 5 Norte 0 966.4 -0.2 92
2019-09-27 02:00:00 14.6 0 Calma 5 Oeste 0 966.5 0 91
2019-09-27 01:00:00 15.5 3 Noroeste 8 Noroeste 0 966.5 0.5 89
2019-09-27 00:00:00 16.4 6 Noroeste 9 Noroeste 0 966.6 1.1 87
2019-09-26 23:00:00 17.3 5 Noroeste 11 Noroeste 0 966.5 1.8 83
2019-09-26 22:00:00 19.1 2 Norte 17 Oeste 0 966 1.7 76
2019-09-26 21:00:00 20.6 8 Oeste 17 Noroeste 0 965.5 1.2 69
2019-09-26 20:00:00 23.6 10 Noroeste 21 Norte 0 964.7 0 55
2019-09-26 19:00:00 27.6 4 Sudoeste 13 Oeste 0 964.3 -0.8 33
2019-09-26 18:00:00 27.1 7 Sudeste 13 Sur 0 964.3 -1 33
2019-09-26 17:00:00 26.6 7 Norte 18 Norte 0 964.7 -1.3 34
2019-09-26 16:00:00 27.9 7 Sudoeste 18 Sur 0 965.1 -1.5 33
2019-09-26 15:00:00 26.7 4 Noroeste 22 Sudoeste 0 965.3 -1.7 36
2019-09-26 14:00:00 25.3 4 Sudoeste 15 Noroeste 0 966 -1.1 40
2019-09-26 13:00:00 22.8 4 Nordeste 11 Nordeste 0 966.6 -0.5 49
2019-09-26 12:00:00 20.4 4 Noroeste 11 Norte 0 967 0.2 56
2019-09-26 11:00:00 18 3 Sudeste 8 Sudeste 0 967.1 0.6 63
2019-09-26 10:00:00 15 2 Este 8 Nordeste 0 967.1 0.9 73
2019-09-26 09:00:00 12.7 0 Calma 8 Sudeste 0 966.8 0.5 84
2019-09-26 08:00:00 11.1 2 Nordeste 9 Nordeste 0 966.5 0 87
2019-09-26 07:00:00 11.5 4 Nordeste 8 Nordeste 0 966.2 -0.3 88
2019-09-26 06:00:00 11.5 2 Sudeste -- -- 0 966.3 -0.3 90
2019-09-26 05:00:00 12.3 0 Calma 9 Nordeste 0 966.5 -0.1 86
2019-09-26 04:00:00 12.7 0 Calma 5 Norte 0 966.5 -0.1 86
2019-09-26 03:00:00 13.2 0 Calma 5 Noroeste 0 966.6 0 83
2019-09-26 02:00:00 14.2 4 Noroeste 8 Norte 0 966.6 0.2 79
2019-09-26 01:00:00 15.3 0 Calma 9 Nordeste 0 966.6 0.7 77
2019-09-26 00:00:00 16.1 6 Nordeste 11 Nordeste 0 966.6 0.7 74
2019-09-25 23:00:00 16.1 9 Nordeste 15 Nordeste 0 966.4 1.1 73
2019-09-25 22:00:00 16.7 10 Nordeste 15 Nordeste 0 965.9 0.8 70
2019-09-25 21:00:00 17.4 8 Norte 18 Nordeste 0 965.9 0.8 67
2019-09-25 20:00:00 17.9 13 Nordeste 18 Nordeste 0 965.3 0.4 63
2019-09-25 19:00:00 19.2 12 Norte 28 Nordeste 0 965.1 0.1 57
2019-09-25 18:00:00 19.7 12 Norte 28 Nordeste 0 965.1 0 53
2019-09-25 17:00:00 20.7 15 Norte 28 Nordeste 0 964.9 -0.8 50
2019-09-25 16:00:00 21.2 18 Norte 30 Nordeste 0 965 -1.1 47
2019-09-25 15:00:00 22 12 Norte 28 Norte 0 965.1 -1.4 45
2019-09-25 14:00:00 21.3 10 Norte 26 Norte 0 965.7 -0.7 46
2019-09-25 13:00:00 20.6 12 Norte 26 Norte 0 966.1 0.2 48
2019-09-25 12:00:00 18.2 12 Noroeste 22 Norte 0 966.5 1 57
2019-09-25 11:00:00 17.5 10 Noroeste 22 Noroeste 0 966.4 1.2 59
2019-09-25 10:00:00 15.6 15 Noroeste 30 Noroeste 0 965.9 0.9 67
2019-09-25 09:00:00 15.1 16 Norte -- -- -- 965.5 0.7 69
2019-09-25 08:00:00 14.7 9 Norte 18 Noroeste 0 965.2 0.4 74
2019-09-25 07:00:00 14.8 8 Norte 13 Norte 0 965 0 75
2019-09-25 06:00:00 14.9 10 Norte 21 Norte 0 964.8 -0.6 74
2019-09-25 05:00:00 14.9 10 Norte 24 Norte 0 964.8 -0.2 74
2019-09-25 04:00:00 14.7 8 Noroeste 15 Noroeste 0 965 -0.1 76
2019-09-25 03:00:00 14.8 9 Noroeste 21 Norte 0 965.4 0.2 77
2019-09-25 02:00:00 15.3 15 Norte 30 Norte 0 965 0.1 74
2019-09-25 01:00:00 15.4 21 Norte 30 Norte 0 965.1 0.2 75
2019-09-25 00:00:00 15.9 17 Norte 33 Norte 0 965.2 1.1 75
2019-09-24 23:00:00 16.6 8 Noroeste 30 Norte 0 964.9 1.5 71
2019-09-24 22:00:00 16.5 20 Noroeste 35 Norte 0 964.9 2.3 70
2019-09-24 21:00:00 17.5 20 Noroeste 30 Noroeste 0 964.1 1.5 72
2019-09-24 20:00:00 19.3 16 Noroeste 26 Norte 0 963.4 0.9 72
2019-09-24 19:00:00 22.4 15 Norte 32 Norte 0 962.6 0.1 60
2019-09-24 18:00:00 25.2 20 Norte 35 Noroeste 0 962.6 -0.2 50
2019-09-24 17:00:00 26.9 24 Noroeste 39 Oeste 0 962.5 -1 42
2019-09-24 16:00:00 28.3 18 Oeste 37 Oeste 0 962.5 -1.4 39
2019-09-24 15:00:00 26.2 19 Oeste 30 Sudoeste 0 962.8 -1.6 40
2019-09-24 14:00:00 26.3 12 Oeste 32 Oeste 0 963.5 -1.4 38
2019-09-24 13:00:00 24.6 11 Oeste 28 Sudoeste 0 963.9 -0.4 40
2019-09-24 12:00:00 23.1 9 Sudeste 17 Sudeste 0 964.4 0.1 45
2019-09-24 11:00:00 19.2 3 Este 13 Sur 0 964.9 0.4 54
2019-09-24 10:00:00 17.2 10 Sur 13 Sur 0 964.3 0.4 65
2019-09-24 09:00:00 13.5 3 Sur 11 Sudeste 0 964.3 0.3 83
2019-09-24 08:00:00 12.2 7 Nordeste 11 Norte 0 964.5 0.7 88
2019-09-24 07:00:00 11.8 5 Norte 9 Noroeste 0 963.9 -0.1 88
2019-09-24 06:00:00 11.4 8 Oeste 11 Oeste 0 964 -0.8 87
2019-09-24 05:00:00 12 3 Noroeste 8 Oeste 0 963.8 -1 88
2019-09-24 04:00:00 13 0 Calma 9 Noroeste 0 964 -1.4 83
2019-09-24 03:00:00 14.3 5 Norte 11 Oeste 0 964.8 -1 78
2019-09-24 02:00:00 15.5 5 Sur 5 Sudoeste 0 964.8 -1.1 72
2019-09-24 01:00:00 16.4 3 Este 9 Sur 0 965.4 -0.4 69
2019-09-24 00:00:00 17.4 6 Sur 15 Sur 0 965.8 0 61
2019-09-23 23:00:00 17.1 7 Sudeste 15 Sudeste 0 965.9 0.2 64
2019-09-23 22:00:00 17.9 10 Sudeste 13 Sur 0 965.8 0.3 62
2019-09-23 21:00:00 19.3 8 Sur 11 Sur 0 965.8 0.1 57
2019-09-23 20:00:00 20.6 8 Sudoeste 11 Sudoeste 0 965.7 0 49
2019-09-23 19:00:00 22.1 10 Sur 17 Sudoeste 0 965.5 -0.8 42
2019-09-23 18:00:00 23.2 13 Sudoeste 26 Sur 0 965.7 -0.5 39
2019-09-23 17:00:00 23.2 14 Sudoeste 28 Sur 0 965.7 -0.9 39
2019-09-23 16:00:00 22.3 9 Sudoeste 26 Oeste 0 966.3 -0.6 42
2019-09-23 15:00:00 22.7 14 Sudoeste 24 Sudoeste 0 966.2 -1.1 41
2019-09-23 14:00:00 21.6 14 Sur 22 Sur 0 966.6 -0.9 47
2019-09-23 13:00:00 19.8 3 Sur 13 Sur 0 966.9 -0.6 56
2019-09-23 12:00:00 19.2 6 Sudeste 11 Sudeste 0 967.3 0.1 61
2019-09-23 11:00:00 15.7 3 Nordeste 8 Norte 0 967.5 0.6 74
2019-09-23 10:00:00 12.9 0 Calma 5 Noroeste 0 967.5 1.1 86
2019-09-23 09:00:00 11 0 Calma 2 Nordeste 0 967.2 0.9 94
2019-09-23 08:00:00 10 0 Calma 2 Norte 0 966.9 1.1 95
2019-09-23 07:00:00 10 0 Calma 4 Este 0 966.4 0.8 95
2019-09-23 06:00:00 10.4 0 Calma 5 Sudeste 0 966.3 0.5 95
2019-09-23 05:00:00 10.7 0 Calma 9 Este 0 965.8 0.1 94
2019-09-23 04:00:00 10.6 2 Este 5 Este 0 965.6 -0.1 94
2019-09-23 03:00:00 11.5 2 Sudeste 5 Sudeste 0 965.8 0.3 92
2019-09-23 02:00:00 12.1 4 Sudeste 8 Sudeste 0 965.7 0.4 90
2019-09-23 01:00:00 12.9 10 Noroeste 13 Noroeste 0 965.7 0.9 89
2019-09-23 00:00:00 13.6 5 Oeste 9 Oeste 0 965.5 1.6 86
2019-09-22 23:00:00 14.6 0 Calma 15 Noroeste 0 965.3 2.6 80
2019-09-22 22:00:00 15.3 9 Noroeste 17 Noroeste 0 964.8 2.5 79
2019-09-22 21:00:00 16.7 10 Norte 24 Norte 0 963.9 2.1 73
2019-09-22 20:00:00 18.8 15 Norte 22 Norte 0 962.7 0.9 61
2019-09-22 19:00:00 21.9 14 Noroeste 24 Noroeste 0 962.3 0.5 40
2019-09-22 18:00:00 21.6 13 Norte 28 Norte 0 961.8 0.5 43
2019-09-22 17:00:00 22.7 19 Noroeste 33 Norte 0 961.8 0.5 41
2019-09-22 16:00:00 21.8 22 Noroeste 32 Noroeste 0 961.8 0.4 44
2019-09-22 15:00:00 22.6 13 Noroeste 26 Norte 0 961.3 0.1 47
2019-09-22 14:00:00 22.4 11 Noroeste 24 Norte 0 961.3 0.6 50
2019-09-22 13:00:00 20.4 14 Noroeste 24 Norte 0 961.4 1.5 59
2019-09-22 12:00:00 18.5 15 Norte 24 Norte 0 961.2 2.1 70
2019-09-22 11:00:00 18.7 10 Oeste 13 Oeste 0 960.7 2.8 77
2019-09-22 10:00:00 17.1 5 Sur 18 Sudeste 0 959.9 2.5 86
2019-09-22 09:00:00 16.9 14 Oeste 33 Noroeste 2.2 959.1 2 92
2019-09-22 08:00:00 18.5 10 Sur 21 Sur 0 957.9 0.5 84
2019-09-22 07:00:00 18.2 11 Sudeste 21 Sudeste 0.5 957.4 -0.3 85
2019-09-22 06:00:00 19.2 14 Sudeste 26 Sudeste 0.1 957.1 -0.6 81
2019-09-22 05:00:00 20.3 12 Este 22 Sudeste 0 957.4 -0.4 72
2019-09-22 04:00:00 21.1 18 Sur 35 Sur 0 957.7 0 66
2019-09-22 03:00:00 20.7 14 Sudeste 35 Sur 0 957.7 -0.2 66
2019-09-22 02:00:00 21.6 19 Sur 45 Sur 0 957.8 -0.2 60
2019-09-22 01:00:00 20.4 20 Sudeste 32 Sudeste 0 957.7 -0.6 64
2019-09-22 00:00:00 21.2 17 Sudeste 28 Sudeste 0 957.9 0.1 61
2019-09-21 23:00:00 21.7 26 Sur 41 Sur 0 958 0.5 59
2019-09-21 22:00:00 22 19 Sur 35 Sur 0 958.3 1.1 56
2019-09-21 21:00:00 22.4 22 Sur 37 Sur 0 957.8 0.4 55
2019-09-21 20:00:00 23.6 21 Sur 37 Sur 0 957.5 -0.4 48
2019-09-21 19:00:00 24.2 25 Sur 33 Sur 0 957.2 -1 49
2019-09-21 18:00:00 24.6 20 Sur 33 Sur 0 957.4 -1.4 48
2019-09-21 17:00:00 24.9 23 Sur 39 Sur 0 957.9 -1.5 48
2019-09-21 16:00:00 25.6 26 Sur 42 Sur 0 958.2 -1.6 47
2019-09-21 15:00:00 26.9 23 Sur 35 Sudoeste 0 958.8 -1.5 45
2019-09-21 14:00:00 25.4 22 Sur 35 Sur 0 959.4 -0.9 49
2019-09-21 13:00:00 24.2 23 Sur 41 Sudeste 0 959.8 -0.9 54
2019-09-21 12:00:00 20.5 26 Sudeste 39 Sudeste 0 960.3 -0.3 67
2019-09-21 11:00:00 19.6 23 Sudeste 41 Sudeste 0 960.3 -0.5 72
2019-09-21 10:00:00 18.4 24 Sudeste 35 Sudeste 0 960.7 0 78
2019-09-21 09:00:00 18 22 Este 33 Este 0 960.6 -0.5 80
2019-09-21 08:00:00 17.8 23 Este 35 Sudeste 0 960.8 -0.5 81
2019-09-21 07:00:00 17.5 15 Sudeste 28 Sudeste 0 960.7 -1.4 82
2019-09-21 06:00:00 16.8 17 Sudeste 32 Sudeste 0.3 961.1 -0.7 86
2019-09-21 05:00:00 17 25 Sudeste 39 Sudeste 0 961.3 -0.9 84
2019-09-21 04:00:00 16.7 6 Este 35 Sur 1 962.1 -0.5 88
2019-09-21 03:00:00 17.8 18 Sur 50 Sudeste 0.3 961.8 -1.2 78
2019-09-21 02:00:00 18.4 24 Sudeste 41 Sudeste 0 962.2 -0.6 75
2019-09-21 01:00:00 19 32 Sudeste 54 Sudeste 0 962.6 0.1 77
2019-09-21 00:00:00 21.1 26 Sudeste 45 Sudeste 0 963 0.7 69
2019-09-20 23:00:00 21.8 28 Sudeste 41 Sudeste 0 962.8 1 63
2019-09-20 22:00:00 22.3 20 Sudeste -- -- -- 962.5 1.2 62
2019-09-20 21:00:00 23.9 19 Sudeste 30 Sudeste 0 962.3 1 52
2019-09-20 20:00:00 24.2 15 Sudeste 33 Sudeste 0 961.8 0 49
2019-09-20 19:00:00 26.1 21 Sudeste 37 Sur 0 961.3 -1.2 44
2019-09-20 18:00:00 26.6 24 Sudeste 37 Sur 0 961.3 -1.9 45
2019-09-20 17:00:00 27.6 24 Sudeste 42 Sur 0 961.8 -2 43
2019-09-20 16:00:00 28.6 23 Sur 42 Sur 0 962.5 -1.8 42
2019-09-20 15:00:00 28.3 30 Sur 42 Sur 0 963.2 -2 41
2019-09-20 14:00:00 27.1 21 Sudeste 37 Sur 0 963.8 -1.9 45
2019-09-20 13:00:00 26.8 20 Sudeste 32 Sudeste 0 964.3 -1.4 46
2019-09-20 12:00:00 24.7 6 Sudoeste 13 Oeste 0 965.2 -0.1 52
2019-09-20 11:00:00 21.4 5 Oeste 11 Noroeste 0 965.7 0.8 68
2019-09-20 10:00:00 18.4 2 Noroeste 8 Oeste 0 965.7 1.1 82
2019-09-20 09:00:00 16.3 0 Calma 8 Este 0 965.3 0.6 90
2019-09-20 08:00:00 14.4 4 Este 8 Este 0 964.9 0.2 95
2019-09-20 07:00:00 15 2 Sudoeste -- -- -- 964.6 -0.2 94
2019-09-20 06:00:00 15.6 0 Calma -- -- 0 964.7 -0.3 96
2019-09-20 05:00:00 15.6 0 Calma 8 Sudoeste 0 964.7 -0.4 95
2019-09-20 04:00:00 16 4 Noroeste 9 Oeste 0 964.8 -0.2 95
2019-09-20 03:00:00 16.9 5 Oeste 8 Oeste 0 965 -0.2 92
2019-09-20 02:00:00 17.9 3 Nordeste 5 Oeste 0 965.1 -0.2 88
2019-09-20 01:00:00 18.7 2 Sudeste 5 Sudeste 0 965 0.1 85
2019-09-20 00:00:00 19.4 4 Norte 9 Noroeste 0 965.2 0.8 83
2019-09-19 23:00:00 20.2 5 Norte 11 Noroeste 0 965.3 1.6 80
2019-09-19 22:00:00 20.4 8 Noroeste 15 Noroeste 0 964.9 1.4 79
2019-09-19 21:00:00 21.1 9 Noroeste 17 Norte 0 964.4 1.1 76
2019-09-19 20:00:00 23.1 12 Norte 26 Nordeste 0 963.7 0.1 66
2019-09-19 19:00:00 25.4 21 Nordeste 30 Nordeste 0 963.5 -0.6 58
2019-09-19 18:00:00 27.8 6 Noroeste 17 Oeste 0 963.3 -1.5 43
2019-09-19 17:00:00 28 7 Noroeste 17 Noroeste 0 963.6 -2.1 44
2019-09-19 16:00:00 28.1 10 Oeste 18 Noroeste 0 964.1 -2.1 45
2019-09-19 15:00:00 25.5 4 Norte 13 Este 0 964.8 -1.9 54
2019-09-19 14:00:00 23.6 3 Nordeste 11 Este 0 965.7 -1.1 60
2019-09-19 13:00:00 20.9 4 Norte 13 Nordeste 0 966.2 -0.3 71
2019-09-19 12:00:00 19.1 5 Nordeste 13 Nordeste 0 966.7 0.4 78
2019-09-19 11:00:00 16.8 0 Calma 9 Oeste 0 966.8 0.8 87
2019-09-19 10:00:00 15.8 3 Noroeste 5 Noroeste 0 966.5 0.8 93
2019-09-19 09:00:00 14.2 0 Calma 4 Sudoeste 0 966.3 0.8 97
2019-09-19 08:00:00 13.4 0 Calma 9 Nordeste 0 966 0.5 96
2019-09-19 07:00:00 13.9 0 Calma 5 Nordeste 0 965.7 -0.2 96
2019-09-19 06:00:00 14 0 Calma 5 Sudeste 0 965.5 -0.6 95
2019-09-19 05:00:00 14.6 4 Sudeste 5 Sudeste 0 965.5 -0.6 95
2019-09-19 04:00:00 15.1 0 Calma 8 Noroeste 0 965.9 -0.4 94
2019-09-19 03:00:00 15.4 0 Calma 5 Oeste 0 966.1 -0.1 93
2019-09-19 02:00:00 16 0 Calma 11 Noroeste 0 966.1 0 91
2019-09-19 01:00:00 17 8 Noroeste 18 Noroeste 0 966.3 0.4 89
2019-09-19 00:00:00 17 7 Noroeste 11 Noroeste 0 966.2 0.9 89
2019-09-18 23:00:00 17.6 6 Noroeste 21 Noroeste 0 966.1 1.5 89
2019-09-18 22:00:00 18.3 12 Norte 17 Norte 0 965.9 1.3 87
2019-09-18 21:00:00 19.1 0 Calma 13 Norte 0 965.3 1.9 90
2019-09-18 20:00:00 19.6 7 Este 24 Norte 0.2 964.6 1.2 89
2019-09-18 19:00:00 19.3 5 Oeste 65 Nordeste 0 964.6 0.8 88
2019-09-18 18:00:00 26 24 Noroeste 33 Noroeste 0 963.4 -0.9 54
2019-09-18 17:00:00 27.4 19 Noroeste 28 Noroeste 0 963.4 -1.5 48
2019-09-18 16:00:00 27.3 13 Noroeste 22 Noroeste 0 963.8 -1.3 47
2019-09-18 15:00:00 26.1 5 Noroeste 13 Oeste 0 964.3 -0.9 51
2019-09-18 14:00:00 24.6 6 Noroeste 13 Norte 0 964.9 -0.3 53
2019-09-18 13:00:00 22.9 6 Oeste 17 Nordeste 0 965.1 -0.6 63
2019-09-18 12:00:00 19.2 9 Este 17 Este 0 965.2 0.9 78
2019-09-18 11:00:00 17.4 7 Sudeste 17 Oeste 4.3 965.2 1.4 92
2019-09-18 10:00:00 15.9 8 Este 24 Este 10 965.7 2.8 94
2019-09-18 09:00:00 15.5 14 Sur 45 Sudeste 17.4 964.3 1 95
2019-09-18 08:00:00 16.2 8 Sudoeste 9 Sudoeste 0 963.8 0.4 88
2019-09-18 07:00:00 15.6 5 Sudoeste -- -- 0 962.9 -0.8 91
2019-09-18 06:00:00 16.1 8 Sur 9 Sur 0 963.3 -0.7 89
2019-09-18 05:00:00 16.6 6 Sur 9 Sudoeste 0 963.4 -0.1 88
2019-09-18 04:00:00 17.5 8 Sudeste 11 Sudeste 0 963.7 -0.1 85
2019-09-18 03:00:00 17.4 5 Noroeste 17 Sur 0 964 -0.2 85
2019-09-18 02:00:00 17.8 8 Sur 11 Sur 0 963.5 -0.2 84
2019-09-18 01:00:00 18.6 3 Sudeste 5 Sudeste 0 963.8 0.3 80
2019-09-18 00:00:00 19.8 0 Calma 17 Noroeste 0 964.2 1 76
2019-09-17 23:00:00 20.5 11 Noroeste 22 Norte 0 963.7 1 75
2019-09-17 22:00:00 21.2 12 Noroeste 24 Norte 0 963.5 0.9 75
2019-09-17 21:00:00 22.5 17 Norte 24 Norte 0 963.2 0.5 71